createdAt,value
2022-11-10T00:00:51.824Z,14.69
2022-11-10T00:03:18.194Z,14.77
2022-11-10T00:05:44.650Z,14.62
2022-11-10T00:08:12.280Z,14.71
2022-11-10T00:10:56.861Z,14.61
2022-11-10T00:13:32.315Z,14.63
2022-11-10T00:16:19.430Z,14.66
2022-11-10T00:18:45.810Z,14.25
2022-11-10T00:21:13.364Z,14.48
2022-11-10T00:23:39.720Z,14.67
2022-11-10T00:26:15.830Z,14.39
2022-11-10T00:28:42.555Z,14.54
2022-11-10T00:31:09.968Z,14.43
2022-11-10T00:33:38.109Z,14.35
2022-11-10T00:36:05.509Z,14.26
2022-11-10T00:38:31.981Z,14.34
2022-11-10T00:41:00.023Z,14.40
2022-11-10T00:43:27.776Z,14.29
2022-11-10T00:45:54.716Z,14.29
2022-11-10T00:48:21.291Z,14.31
2022-11-10T00:50:47.653Z,14.20
2022-11-10T00:53:14.029Z,13.93
2022-11-10T00:55:41.435Z,14.14
2022-11-10T00:58:08.257Z,14.22
2022-11-10T01:00:34.928Z,14.25
2022-11-10T01:03:02.546Z,14.21
2022-11-10T01:05:30.459Z,14.21
2022-11-10T01:07:59.742Z,14.29
2022-11-10T01:10:26.681Z,14.22
2022-11-10T01:12:53.498Z,13.89
2022-11-10T01:15:26.022Z,13.97
2022-11-10T01:17:55.604Z,14.04
2022-11-10T01:20:22.007Z,14.10
2022-11-10T01:22:48.360Z,14.11
2022-11-10T01:25:14.761Z,14.19
2022-11-10T01:27:41.125Z,14.05
2022-11-10T01:30:07.898Z,14.35
2022-11-10T01:32:34.297Z,14.01
2022-11-10T01:35:00.605Z,14.21
2022-11-10T01:37:27.253Z,14.30
2022-11-10T01:39:53.602Z,14.24
2022-11-10T01:42:28.166Z,14.18
2022-11-10T01:45:22.345Z,14.25
2022-11-10T01:47:50.848Z,14.30
2022-11-10T01:50:18.437Z,14.13
2022-11-10T01:52:48.766Z,14.19
2022-11-10T01:55:15.559Z,14.21
2022-11-10T01:57:42.349Z,14.24
2022-11-10T02:00:10.082Z,14.13
2022-11-10T02:02:45.084Z,14.00
2022-11-10T02:05:11.428Z,14.21
2022-11-10T02:07:38.495Z,13.94
2022-11-10T02:10:06.009Z,13.82
2022-11-10T02:12:38.943Z,13.94
2022-11-10T02:15:07.763Z,14.06
2022-11-10T02:17:34.835Z,14.09
2022-11-10T02:20:04.924Z,13.87
2022-11-10T02:22:32.436Z,13.96
2022-11-10T02:24:59.169Z,13.90
2022-11-10T02:27:25.753Z,13.88
2022-11-10T02:29:52.208Z,14.02
2022-11-10T02:32:18.601Z,14.05
2022-11-10T02:34:44.961Z,14.05
2022-11-10T02:37:11.320Z,13.99
2022-11-10T02:39:37.880Z,13.99
2022-11-10T02:42:05.135Z,13.85
2022-11-10T02:44:31.515Z,13.94
2022-11-10T02:46:57.891Z,13.77
2022-11-10T02:49:24.223Z,13.87
2022-11-10T02:51:50.565Z,13.69
2022-11-10T02:54:16.955Z,13.81
2022-11-10T02:56:43.263Z,13.88
2022-11-10T02:59:09.584Z,13.88
2022-11-10T03:01:35.952Z,13.66
2022-11-10T03:04:02.361Z,13.80
2022-11-10T03:06:28.675Z,13.81
2022-11-10T03:08:55.862Z,13.75
2022-11-10T03:11:22.152Z,13.93
2022-11-10T03:14:01.063Z,13.69
2022-11-10T03:16:28.645Z,13.61
2022-11-10T03:18:55.050Z,13.70
2022-11-10T03:21:21.356Z,13.80
2022-11-10T03:23:47.700Z,13.80
2022-11-10T03:26:14.328Z,13.91
2022-11-10T03:28:40.676Z,13.99
2022-11-10T03:31:06.971Z,13.70
2022-11-10T03:33:33.320Z,13.74
2022-11-10T03:35:59.892Z,13.85
2022-11-10T03:38:26.336Z,13.84
2022-11-10T03:43:38.996Z,13.66
2022-11-10T03:46:05.481Z,13.63
2022-11-10T03:48:31.835Z,13.51
2022-11-10T03:50:58.273Z,13.67
2022-11-10T03:53:24.919Z,13.67
2022-11-10T03:55:51.419Z,13.63
2022-11-10T03:58:17.733Z,13.76
2022-11-10T04:00:44.046Z,13.64
2022-11-10T04:03:10.388Z,13.72
2022-11-10T04:05:55.285Z,13.52
2022-11-10T04:08:59.833Z,13.83
2022-11-10T04:11:46.512Z,13.71
2022-11-10T04:14:31.941Z,13.60
2022-11-10T04:16:58.600Z,13.48
2022-11-10T04:19:25.720Z,13.68
2022-11-10T04:21:52.768Z,13.43
2022-11-10T04:24:19.260Z,13.51
2022-11-10T04:26:47.341Z,13.30
2022-11-10T04:29:15.578Z,13.65
2022-11-10T04:31:42.225Z,13.50
2022-11-10T04:34:11.285Z,13.70
2022-11-10T04:36:39.899Z,13.65
2022-11-10T04:39:06.790Z,13.24
2022-11-10T04:41:33.741Z,13.48
2022-11-10T04:44:01.086Z,13.63
2022-11-10T04:46:30.409Z,13.70
2022-11-10T04:48:57.663Z,13.61
2022-11-10T04:51:32.898Z,13.73
2022-11-10T04:53:59.711Z,13.48
2022-11-10T04:56:27.363Z,13.68
2022-11-10T04:58:54.772Z,13.40
2022-11-10T05:01:28.013Z,13.47
2022-11-10T05:03:55.084Z,13.48
2022-11-10T05:06:21.870Z,13.54
2022-11-10T05:08:48.280Z,13.58
2022-11-10T05:11:15.359Z,13.45
2022-11-10T05:13:42.006Z,13.45
2022-11-10T05:16:09.206Z,13.60
2022-11-10T05:18:35.727Z,13.29
2022-11-10T05:21:02.091Z,13.34
2022-11-10T05:23:47.588Z,13.35
2022-11-10T05:26:17.092Z,13.45
2022-11-10T05:28:45.443Z,13.53
2022-11-10T05:31:12.417Z,13.51
2022-11-10T05:33:38.923Z,13.26
2022-11-10T05:36:06.906Z,13.36
2022-11-10T05:38:33.365Z,13.46
2022-11-10T05:40:59.703Z,13.43
2022-11-10T05:43:26.668Z,13.42
2022-11-10T05:45:53.129Z,13.36
2022-11-10T05:48:19.494Z,13.36
2022-11-10T05:50:45.877Z,13.18
2022-11-10T05:53:12.896Z,13.28
2022-11-10T05:55:39.293Z,13.10
2022-11-10T05:58:06.011Z,13.36
2022-11-10T06:00:33.131Z,13.42
2022-11-10T06:03:12.322Z,13.33
2022-11-10T06:05:38.753Z,13.28
2022-11-10T06:08:06.334Z,13.44
2022-11-10T06:10:34.672Z,13.32
2022-11-10T06:13:01.828Z,13.30
2022-11-10T06:15:28.628Z,13.18
2022-11-10T06:17:55.320Z,12.80
2022-11-10T06:20:22.890Z,13.13
2022-11-10T06:22:59.788Z,13.14
2022-11-10T06:25:26.639Z,13.31
2022-11-10T06:27:53.571Z,13.42
2022-11-10T06:30:20.184Z,12.95
2022-11-10T06:32:46.661Z,13.08
2022-11-10T06:35:13.099Z,13.38
2022-11-10T06:37:39.470Z,13.38
2022-11-10T06:40:11.122Z,13.43
2022-11-10T06:42:37.444Z,13.37
2022-11-10T06:45:04.105Z,13.26
2022-11-10T06:47:31.842Z,13.24
2022-11-10T06:49:58.203Z,13.22
2022-11-10T06:52:24.559Z,13.32
2022-11-10T06:54:50.900Z,13.33
2022-11-10T06:57:17.248Z,13.28
2022-11-10T06:59:43.565Z,13.27
2022-11-10T07:02:15.282Z,13.34
2022-11-10T07:04:42.746Z,13.30
2022-11-10T07:07:10.000Z,13.40
2022-11-10T07:09:36.523Z,13.44
2022-11-10T07:12:03.111Z,13.37
2022-11-10T07:14:29.585Z,13.17
2022-11-10T07:16:55.914Z,13.13
2022-11-10T07:19:22.254Z,13.39
2022-11-10T07:21:48.563Z,13.33
2022-11-10T07:24:14.864Z,13.32
2022-11-10T07:26:41.158Z,13.32
2022-11-10T07:29:07.474Z,13.23
2022-11-10T07:31:33.785Z,13.50
2022-11-10T07:34:00.110Z,13.17
2022-11-10T07:36:28.839Z,13.35
2022-11-10T07:38:55.453Z,13.40
2022-11-10T07:41:21.870Z,13.30
2022-11-10T07:43:48.169Z,13.42
2022-11-10T07:46:14.531Z,13.44
2022-11-10T07:48:40.983Z,13.54
2022-11-10T07:51:07.364Z,13.70
2022-11-10T07:53:33.690Z,13.79
2022-11-10T07:56:00.134Z,13.78
2022-11-10T07:58:26.444Z,13.79
2022-11-10T08:00:52.978Z,13.97
2022-11-10T08:03:21.743Z,13.96
2022-11-10T08:05:48.565Z,13.83
2022-11-10T08:08:14.950Z,13.97
2022-11-10T08:10:41.813Z,14.07
2022-11-10T08:13:10.620Z,14.08
2022-11-10T08:15:37.633Z,14.16
2022-11-10T08:18:05.585Z,14.20
2022-11-10T08:20:32.356Z,14.23
2022-11-10T08:23:00.548Z,14.25
2022-11-10T08:25:34.237Z,14.50
2022-11-10T08:28:05.571Z,14.38
2022-11-10T08:30:33.155Z,14.44
2022-11-10T08:33:01.660Z,14.52
2022-11-10T08:35:30.406Z,14.50
2022-11-10T08:37:56.793Z,14.64
2022-11-10T08:40:27.472Z,14.73
2022-11-10T08:43:01.337Z,14.67
2022-11-10T08:45:27.772Z,14.58
2022-11-10T08:48:05.502Z,14.44
2022-11-10T08:50:32.357Z,14.58
2022-11-10T08:53:03.084Z,14.84
2022-11-10T08:55:29.797Z,14.76
2022-11-10T08:58:01.194Z,14.89
2022-11-10T09:00:30.861Z,15.13
2022-11-10T09:03:04.222Z,15.03
2022-11-10T09:05:30.530Z,14.93
2022-11-10T09:07:56.879Z,15.01
2022-11-10T09:10:24.241Z,15.07
2022-11-10T09:12:50.577Z,15.00
2022-11-10T09:15:16.937Z,14.97
2022-11-10T09:17:43.431Z,15.09
2022-11-10T09:20:11.689Z,15.15
2022-11-10T09:22:38.435Z,15.28
2022-11-10T09:25:05.641Z,15.33
2022-11-10T09:27:36.792Z,15.40
2022-11-10T09:30:05.107Z,15.54
2022-11-10T09:32:32.320Z,15.40
2022-11-10T09:34:59.445Z,15.53
2022-11-10T09:37:26.194Z,15.54
2022-11-10T09:39:52.648Z,15.78
2022-11-10T09:42:31.476Z,15.84
2022-11-10T09:45:11.028Z,15.85
2022-11-10T09:48:00.281Z,15.69
2022-11-10T09:50:39.721Z,16.02
2022-11-10T09:53:15.148Z,16.13
2022-11-10T09:55:48.860Z,16.13
2022-11-10T09:58:15.905Z,16.13
2022-11-10T10:00:50.056Z,16.17
2022-11-10T10:03:23.328Z,16.22
2022-11-10T10:06:16.317Z,16.54
2022-11-10T10:08:57.231Z,17.15
2022-11-10T10:11:36.580Z,17.74
2022-11-10T10:14:16.773Z,18.09
2022-11-10T10:17:18.596Z,17.97
2022-11-10T10:19:57.305Z,17.97
2022-11-10T10:22:35.868Z,18.64
2022-11-10T10:25:11.921Z,18.96
2022-11-10T10:27:40.653Z,19.72
2022-11-10T10:30:15.702Z,19.96
2022-11-10T10:32:42.496Z,21.23
2022-11-10T10:35:13.400Z,21.33
2022-11-10T10:37:48.174Z,21.10
2022-11-10T10:40:18.976Z,21.94
2022-11-10T10:42:45.699Z,22.10
2022-11-10T10:45:20.932Z,21.48
2022-11-10T10:47:49.709Z,21.85
2022-11-10T10:50:20.676Z,22.02
2022-11-10T10:53:06.708Z,21.86
2022-11-10T10:55:34.965Z,21.23
2022-11-10T10:58:05.514Z,21.68
2022-11-10T11:00:33.125Z,22.06
2022-11-10T11:03:11.507Z,23.49
2022-11-10T11:05:37.799Z,22.80
2022-11-10T11:08:04.694Z,23.02
2022-11-10T11:10:34.696Z,22.28
2022-11-10T11:13:22.248Z,21.68
2022-11-10T11:16:14.862Z,22.64
2022-11-10T11:18:41.250Z,23.29
2022-11-10T11:21:34.820Z,23.51
2022-11-10T11:24:19.456Z,24.52
2022-11-10T11:26:56.333Z,24.47
2022-11-10T11:29:50.458Z,22.53
2022-11-10T11:32:41.775Z,21.32
2022-11-10T11:35:19.710Z,19.51
2022-11-10T11:38:01.889Z,19.21
2022-11-10T11:40:34.817Z,18.85
2022-11-10T11:43:30.483Z,18.47
2022-11-10T11:46:04.598Z,18.27
2022-11-10T11:48:51.337Z,18.38
2022-11-10T11:51:28.284Z,18.20
2022-11-10T11:54:13.292Z,17.76
2022-11-10T11:56:43.148Z,18.11
2022-11-10T11:59:25.183Z,18.13
2022-11-10T12:01:57.736Z,18.33
2022-11-10T12:04:50.968Z,17.76
2022-11-10T12:07:50.087Z,17.74
2022-11-10T12:10:43.276Z,18.03
2022-11-10T12:13:12.556Z,18.14
2022-11-10T12:15:51.026Z,18.02
2022-11-10T12:18:35.127Z,17.61
2022-11-10T12:21:29.488Z,17.86
2022-11-10T12:24:29.992Z,18.00
2022-11-10T12:27:14.617Z,18.12
2022-11-10T12:29:50.477Z,18.28
2022-11-10T12:32:51.281Z,18.23
2022-11-10T12:35:22.554Z,18.44
2022-11-10T12:37:52.678Z,18.64
2022-11-10T12:40:22.085Z,18.83
2022-11-10T12:42:58.291Z,18.83
2022-11-10T12:45:32.490Z,18.41
2022-11-10T12:48:00.246Z,18.72
2022-11-10T12:50:41.134Z,18.58
2022-11-10T12:53:19.951Z,18.60
2022-11-10T12:55:51.619Z,18.33
2022-11-10T12:58:18.758Z,18.34
2022-11-10T13:01:02.026Z,18.10
2022-11-10T13:03:31.437Z,18.53
2022-11-10T13:06:07.050Z,18.60
2022-11-10T13:08:42.403Z,18.47
2022-11-10T13:11:11.691Z,18.50
2022-11-10T13:13:46.281Z,18.64
2022-11-10T13:16:38.760Z,18.55
2022-11-10T13:19:07.682Z,18.69
2022-11-10T13:21:52.190Z,18.77
2022-11-10T13:24:26.677Z,18.64
2022-11-10T13:26:58.241Z,18.49
2022-11-10T13:29:36.557Z,18.10
2022-11-10T13:32:14.972Z,18.41
2022-11-10T13:34:44.885Z,18.26
2022-11-10T13:37:29.184Z,18.41
2022-11-10T13:40:17.446Z,18.58
2022-11-10T13:43:19.090Z,18.55
2022-11-10T13:45:46.846Z,18.65
2022-11-10T13:48:33.238Z,18.88
2022-11-10T13:51:18.421Z,18.54
2022-11-10T13:53:50.706Z,18.56
2022-11-10T13:56:16.955Z,18.32
2022-11-10T13:58:44.628Z,18.32
2022-11-10T14:01:16.766Z,18.77
2022-11-10T14:03:46.249Z,18.71
2022-11-10T14:06:26.216Z,18.60
2022-11-10T14:09:11.326Z,18.26
2022-11-10T14:11:49.999Z,18.50
2022-11-10T14:14:33.455Z,18.40
2022-11-10T14:17:00.917Z,18.08
2022-11-10T14:19:43.033Z,18.31
2022-11-10T14:22:34.200Z,18.27
2022-11-10T14:25:17.544Z,18.42
2022-11-10T14:27:44.374Z,18.14
2022-11-10T14:30:25.337Z,18.56
2022-11-10T14:33:00.812Z,18.12
2022-11-10T14:35:31.398Z,18.40
2022-11-10T14:38:00.402Z,18.27
2022-11-10T14:40:28.181Z,18.33
2022-11-10T14:42:55.333Z,18.19
2022-11-10T14:45:27.364Z,18.33
2022-11-10T14:47:59.678Z,18.57
2022-11-10T14:50:36.110Z,18.39
2022-11-10T14:53:07.784Z,18.28
2022-11-10T14:55:35.976Z,18.36
2022-11-10T14:58:11.236Z,18.67
2022-11-10T15:00:39.815Z,18.64
2022-11-10T15:03:07.960Z,18.56
2022-11-10T15:05:34.933Z,18.14
2022-11-10T15:08:03.414Z,18.18
2022-11-10T15:10:41.774Z,18.12
2022-11-10T15:13:13.873Z,18.01
2022-11-10T15:15:41.366Z,17.85
2022-11-10T15:18:24.320Z,18.14
2022-11-10T15:21:01.876Z,18.15
2022-11-10T15:23:36.445Z,18.22
2022-11-10T15:26:04.205Z,18.19
2022-11-10T15:28:35.311Z,18.17
2022-11-10T15:31:11.723Z,18.17
2022-11-10T15:33:45.117Z,18.12
2022-11-10T15:36:27.758Z,18.11
2022-11-10T15:39:12.365Z,18.07
2022-11-10T15:41:44.175Z,18.07
2022-11-10T15:44:21.708Z,17.89
2022-11-10T15:46:51.891Z,17.82
2022-11-10T15:49:36.870Z,17.79
2022-11-10T15:52:23.405Z,17.87
2022-11-10T15:54:50.761Z,17.80
2022-11-10T15:57:19.520Z,17.23
2022-11-10T15:59:45.953Z,17.46
2022-11-10T16:02:25.734Z,17.69
2022-11-10T16:04:59.574Z,17.71
2022-11-10T16:07:26.487Z,17.60
2022-11-10T16:09:52.791Z,17.32
2022-11-10T16:12:22.321Z,17.40
2022-11-10T16:14:51.442Z,17.45
2022-11-10T16:17:18.249Z,17.52
2022-11-10T16:19:46.041Z,17.31
2022-11-10T16:22:13.398Z,17.41
2022-11-10T16:24:40.658Z,17.38
2022-11-10T16:27:12.589Z,17.17
2022-11-10T16:29:39.417Z,17.28
2022-11-10T16:32:06.823Z,17.04
2022-11-10T16:34:33.197Z,16.80
2022-11-10T16:37:00.006Z,16.83
2022-11-10T16:39:27.502Z,16.73
2022-11-10T16:41:53.802Z,16.92
2022-11-10T16:44:25.329Z,17.01
2022-11-10T16:46:55.809Z,16.75
2022-11-10T16:49:33.864Z,16.92
2022-11-10T16:52:07.742Z,17.04
2022-11-10T16:54:34.133Z,16.89
2022-11-10T16:57:00.527Z,16.92
2022-11-10T16:59:26.860Z,16.61
2022-11-10T17:01:54.380Z,16.69
2022-11-10T17:04:20.788Z,16.77
2022-11-10T17:06:47.123Z,16.75
2022-11-10T17:09:17.622Z,16.63
2022-11-10T17:11:44.047Z,16.50
2022-11-10T17:14:11.849Z,16.55
2022-11-10T17:16:40.157Z,16.61
2022-11-10T17:19:07.832Z,16.38
2022-11-10T17:21:36.280Z,16.10
2022-11-10T17:24:03.600Z,16.05
2022-11-10T17:26:31.024Z,16.06
2022-11-10T17:28:57.405Z,16.34
2022-11-10T17:31:23.712Z,16.21
2022-11-10T17:33:50.155Z,16.33
2022-11-10T17:36:22.225Z,16.08
2022-11-10T17:38:49.354Z,16.29
2022-11-10T17:41:17.933Z,16.53
2022-11-10T17:43:46.191Z,16.58
2022-11-10T17:46:14.148Z,16.46
2022-11-10T17:48:40.670Z,16.61
2022-11-10T17:51:18.019Z,16.53
2022-11-10T17:53:44.413Z,16.56
2022-11-10T17:56:10.750Z,16.30
2022-11-10T17:58:37.163Z,16.37
2022-11-10T18:01:12.810Z,16.40
2022-11-10T18:03:39.864Z,16.17
2022-11-10T18:06:06.946Z,16.28
2022-11-10T18:08:33.324Z,16.43
2022-11-10T18:11:00.814Z,16.16
2022-11-10T18:13:27.141Z,16.07
2022-11-10T18:15:58.214Z,16.17
2022-11-10T18:18:24.521Z,16.25
2022-11-10T18:20:50.841Z,16.16
2022-11-10T18:23:17.167Z,15.55
2022-11-10T18:25:43.741Z,16.00
2022-11-10T18:28:13.675Z,16.31
2022-11-10T18:30:40.586Z,16.23
2022-11-10T18:33:07.256Z,16.04
2022-11-10T18:35:40.324Z,16.02
2022-11-10T18:38:07.637Z,15.91
2022-11-10T18:40:34.132Z,16.12
2022-11-10T18:43:06.962Z,16.17
2022-11-10T18:45:35.698Z,16.05
2022-11-10T18:48:03.492Z,16.02
2022-11-10T18:50:30.076Z,16.08
2022-11-10T18:52:56.492Z,16.07
2022-11-10T18:55:22.967Z,15.80
2022-11-10T18:57:49.471Z,15.82
2022-11-10T19:00:16.392Z,15.99
2022-11-10T19:02:42.747Z,15.99
2022-11-10T19:05:09.206Z,15.89
2022-11-10T19:07:35.561Z,15.83
2022-11-10T19:10:01.901Z,15.32
2022-11-10T19:12:28.224Z,15.72
2022-11-10T19:14:54.528Z,15.84
2022-11-10T19:17:20.901Z,15.81
2022-11-10T19:19:49.814Z,15.65
2022-11-10T19:22:18.472Z,15.55
2022-11-10T19:25:06.392Z,15.51
2022-11-10T19:27:31.270Z,14.98
2022-11-10T19:29:57.574Z,15.39
2022-11-10T19:32:25.142Z,15.52
2022-11-10T19:34:51.582Z,15.36
2022-11-10T19:37:17.933Z,15.40
2022-11-10T19:39:44.247Z,14.83
2022-11-10T19:42:10.638Z,15.37
2022-11-10T19:44:37.119Z,15.56
2022-11-10T19:47:03.454Z,15.15
2022-11-10T19:49:29.814Z,15.10
2022-11-10T19:51:56.138Z,15.55
2022-11-10T19:54:22.525Z,15.54
2022-11-10T19:56:48.850Z,15.21
2022-11-10T19:59:15.708Z,15.26
2022-11-10T20:01:46.919Z,15.12
2022-11-10T20:04:13.842Z,15.28
2022-11-10T20:06:40.240Z,15.01
2022-11-10T20:09:06.592Z,15.03
2022-11-10T20:11:32.935Z,15.09
2022-11-10T20:14:00.485Z,15.10
2022-11-10T20:16:26.857Z,15.04
2022-11-10T20:18:53.344Z,14.91
2022-11-10T20:21:23.400Z,15.21
2022-11-10T20:23:54.836Z,15.17
2022-11-10T20:26:21.958Z,15.10
2022-11-10T20:28:49.170Z,14.99
2022-11-10T20:31:20.304Z,15.04
2022-11-10T20:33:48.015Z,15.07
2022-11-10T20:36:21.068Z,15.12
2022-11-10T20:38:50.752Z,15.00
2022-11-10T20:41:20.083Z,14.77
2022-11-10T20:43:46.869Z,14.62
2022-11-10T20:46:33.164Z,14.59
2022-11-10T20:49:02.532Z,14.40
2022-11-10T20:51:28.888Z,14.56
2022-11-10T20:53:56.098Z,14.32
2022-11-10T20:56:28.258Z,14.42
2022-11-10T20:58:56.422Z,14.46
2022-11-10T21:01:23.430Z,14.67
2022-11-10T21:03:49.899Z,14.76
2022-11-10T21:06:16.323Z,14.63
2022-11-10T21:08:42.851Z,14.61
2022-11-10T21:11:09.962Z,14.49
2022-11-10T21:13:37.401Z,14.54
2022-11-10T21:16:05.929Z,14.70
2022-11-10T21:18:34.965Z,14.65
2022-11-10T21:21:01.718Z,14.53
2022-11-10T21:23:28.135Z,14.51
2022-11-10T21:26:00.318Z,14.44
2022-11-10T21:28:27.172Z,14.04
2022-11-10T21:31:02.568Z,14.26
2022-11-10T21:33:28.970Z,14.24
2022-11-10T21:35:55.330Z,14.02
2022-11-10T21:38:21.667Z,14.03
2022-11-10T21:40:48.095Z,13.85
2022-11-10T21:43:14.392Z,13.70
2022-11-10T21:45:40.817Z,13.76
2022-11-10T21:48:07.871Z,13.75
2022-11-10T21:50:34.196Z,13.49
2022-11-10T21:53:00.498Z,13.56
2022-11-10T21:55:26.865Z,13.46
2022-11-10T21:57:57.852Z,13.41
2022-11-10T22:00:25.829Z,13.44
2022-11-10T22:02:58.014Z,13.34
2022-11-10T22:05:24.507Z,13.37
2022-11-10T22:07:50.817Z,13.34
2022-11-10T22:10:35.980Z,13.56
2022-11-10T22:13:21.112Z,13.54
2022-11-10T22:16:06.524Z,13.55
2022-11-10T22:18:38.672Z,13.56
2022-11-10T22:21:06.812Z,13.55
2022-11-10T22:23:52.522Z,13.58
2022-11-10T22:26:19.617Z,13.64
2022-11-10T22:28:46.100Z,13.66
2022-11-10T22:31:13.050Z,13.59
2022-11-10T22:33:41.477Z,13.63
2022-11-10T22:36:11.564Z,13.61
2022-11-10T22:38:40.688Z,13.37
2022-11-10T22:41:50.524Z,13.58
2022-11-10T22:44:18.625Z,13.37
2022-11-10T22:46:48.038Z,13.32
2022-11-10T22:49:15.790Z,13.21
2022-11-10T22:51:44.696Z,13.18
2022-11-10T22:54:16.407Z,13.23
2022-11-10T22:56:43.688Z,13.37
2022-11-10T22:59:11.088Z,13.28
2022-11-10T23:01:38.427Z,13.28
2022-11-10T23:04:04.955Z,13.36
2022-11-10T23:06:31.818Z,13.52
2022-11-10T23:08:59.395Z,13.23
2022-11-10T23:11:28.641Z,13.37
2022-11-10T23:13:55.192Z,13.36
2022-11-10T23:16:24.221Z,13.29
2022-11-10T23:18:52.242Z,13.32
2022-11-10T23:21:20.307Z,13.27
2022-11-10T23:23:47.964Z,13.23
2022-11-10T23:26:20.518Z,13.21
2022-11-10T23:28:47.291Z,13.18
2022-11-10T23:31:17.490Z,13.08
2022-11-10T23:33:45.451Z,12.82
2022-11-10T23:36:13.451Z,12.85
2022-11-10T23:38:40.968Z,12.60
2022-11-10T23:41:12.313Z,12.85
2022-11-10T23:43:38.783Z,12.68
2022-11-10T23:46:08.016Z,12.64
2022-11-10T23:48:36.278Z,12.50
2022-11-10T23:51:03.284Z,12.68
2022-11-10T23:53:30.059Z,12.64
2022-11-10T23:56:01.258Z,12.43
2022-11-10T23:58:28.176Z,12.70
